createdAt,value
2022-09-15T00:01:34.018Z,99267.28
2022-09-15T00:04:37.424Z,99270.75
2022-09-15T00:07:40.113Z,99266.72
2022-09-15T00:10:58.553Z,99268.28
2022-09-15T00:14:03.308Z,99273.09
2022-09-15T00:17:06.949Z,99276.00
2022-09-15T00:20:10.814Z,99285.06
2022-09-15T00:23:15.528Z,99282.13
2022-09-15T00:26:21.968Z,99282.88
2022-09-15T00:29:24.905Z,99285.50
2022-09-15T00:32:27.679Z,99291.91
2022-09-15T00:35:30.237Z,99298.81
2022-09-15T00:38:34.358Z,99293.66
2022-09-15T00:41:39.786Z,99288.06
2022-09-15T00:44:47.615Z,99285.16
2022-09-15T00:47:51.211Z,99282.47
2022-09-15T00:50:56.894Z,99277.63
2022-09-15T00:54:02.361Z,99289.63
2022-09-15T00:57:09.232Z,99287.19
2022-09-15T01:00:16.263Z,99283.22
2022-09-15T01:03:19.714Z,99282.97
2022-09-15T01:06:39.334Z,99295.47
2022-09-15T01:09:47.473Z,99286.91
2022-09-15T01:12:50.543Z,99291.19
2022-09-15T01:16:16.490Z,99293.06
2022-09-15T01:19:34.251Z,99293.81
2022-09-15T01:22:45.502Z,99291.94
2022-09-15T01:26:04.942Z,99286.59
2022-09-15T01:29:38.407Z,99301.28
2022-09-15T01:33:06.649Z,99303.94
2022-09-15T01:36:14.590Z,99304.19
2022-09-15T01:39:23.239Z,99305.50
2022-09-15T01:42:27.384Z,99311.09
2022-09-15T01:45:33.402Z,99296.12
2022-09-15T01:48:36.575Z,99295.06
2022-09-15T01:51:39.579Z,99295.56
2022-09-15T01:54:49.210Z,99307.06
2022-09-15T01:57:52.085Z,99302.22
2022-09-15T02:01:06.560Z,99296.06
2022-09-15T02:04:22.693Z,99299.31
2022-09-15T02:07:50.326Z,99290.72
2022-09-15T02:11:21.892Z,99288.06
2022-09-15T02:14:57.088Z,99275.50
2022-09-15T02:18:03.189Z,99275.50
2022-09-15T02:21:16.165Z,99273.59
2022-09-15T02:24:25.236Z,99271.47
2022-09-15T02:27:34.561Z,99264.53
2022-09-15T02:30:41.320Z,99263.22
2022-09-15T02:34:11.794Z,99263.22
2022-09-15T02:37:14.808Z,99268.81
2022-09-15T02:40:18.212Z,99276.00
2022-09-15T02:43:21.051Z,99270.13
2022-09-15T02:46:24.709Z,99274.66
2022-09-15T02:49:27.491Z,99260.47
2022-09-15T02:52:30.630Z,99252.72
2022-09-15T02:55:33.436Z,99253.59
2022-09-15T02:58:36.600Z,99249.03
2022-09-15T03:01:39.512Z,99248.28
2022-09-15T03:04:42.202Z,99251.22
2022-09-15T03:07:44.875Z,99260.34
2022-09-15T03:10:47.589Z,99257.16
2022-09-15T03:13:54.747Z,99253.94
2022-09-15T03:16:58.463Z,99267.34
2022-09-15T03:20:01.346Z,99269.00
2022-09-15T03:23:04.003Z,99276.75
2022-09-15T03:26:06.956Z,99273.03
2022-09-15T03:29:09.633Z,99268.53
2022-09-15T03:32:12.294Z,99267.97
2022-09-15T03:35:15.151Z,99275.50
2022-09-15T03:38:18.479Z,99285.37
2022-09-15T03:41:21.421Z,99274.12
2022-09-15T03:44:24.725Z,99276.50
2022-09-15T03:47:27.656Z,99288.56
2022-09-15T03:50:30.294Z,99286.19
2022-09-15T03:53:34.490Z,99294.22
2022-09-15T03:56:37.170Z,99287.50
2022-09-15T03:59:39.865Z,99290.72
2022-09-15T04:02:42.529Z,99284.81
2022-09-15T04:05:45.199Z,99290.00
2022-09-15T04:08:49.127Z,99294.59
2022-09-15T04:11:51.926Z,99286.56
2022-09-15T04:14:54.687Z,99286.59
2022-09-15T04:17:57.559Z,99278.84
2022-09-15T04:21:01.820Z,99298.91
2022-09-15T04:24:06.044Z,99290.34
2022-09-15T04:27:08.724Z,99289.28
2022-09-15T04:30:11.699Z,99288.19
2022-09-15T04:33:14.299Z,99286.06
2022-09-15T04:36:19.539Z,99289.22
2022-09-15T04:39:22.625Z,99280.16
2022-09-15T04:42:26.068Z,99285.75
2022-09-15T04:45:28.730Z,99296.19
2022-09-15T04:48:32.038Z,99297.00
2022-09-15T04:51:34.774Z,99298.91
2022-09-15T04:54:37.456Z,99298.34
2022-09-15T04:57:40.343Z,99299.97
2022-09-15T05:00:43.654Z,99295.44
2022-09-15T05:03:47.045Z,99284.00
2022-09-15T05:06:49.622Z,99273.88
2022-09-15T05:09:53.366Z,99288.28
2022-09-15T05:12:56.519Z,99295.81
2022-09-15T05:16:06.467Z,99298.22
2022-09-15T05:19:10.232Z,99296.09
2022-09-15T05:22:12.827Z,99303.09
2022-09-15T05:25:15.508Z,99306.06
2022-09-15T05:28:18.325Z,99310.41
2022-09-15T05:31:34.119Z,99317.09
2022-09-15T05:34:37.290Z,99321.94
2022-09-15T05:37:39.927Z,99324.63
2022-09-15T05:40:42.586Z,99329.41
2022-09-15T05:43:49.716Z,99338.25
2022-09-15T05:46:52.607Z,99339.88
2022-09-15T05:49:55.695Z,99331.28
2022-09-15T05:52:58.384Z,99328.34
2022-09-15T05:56:04.073Z,99336.97
2022-09-15T05:59:06.960Z,99343.41
2022-09-15T06:02:11.479Z,99357.62
2022-09-15T06:05:14.228Z,99359.53
2022-09-15T06:08:17.184Z,99367.31
2022-09-15T06:11:22.556Z,99362.00
2022-09-15T06:14:25.082Z,99369.00
2022-09-15T06:17:29.193Z,99379.50
2022-09-15T06:20:32.035Z,99361.09
2022-09-15T06:23:35.113Z,99369.25
2022-09-15T06:26:37.723Z,99368.50
2022-09-15T06:29:40.608Z,99382.69
2022-09-15T06:32:47.894Z,99385.41
2022-09-15T06:35:51.147Z,99383.31
2022-09-15T06:38:53.865Z,99386.06
2022-09-15T06:42:02.855Z,99387.38
2022-09-15T06:45:06.821Z,99387.12
2022-09-15T06:48:23.864Z,99387.34
2022-09-15T06:51:31.507Z,99398.03
2022-09-15T06:54:34.890Z,99403.94
2022-09-15T06:57:37.461Z,99425.09
2022-09-15T07:00:40.345Z,99424.28
2022-09-15T07:03:44.162Z,99429.94
2022-09-15T07:06:47.037Z,99417.38
2022-09-15T07:09:50.117Z,99414.19
2022-09-15T07:12:52.864Z,99413.53
2022-09-15T07:16:00.417Z,99425.09
2022-09-15T07:19:04.029Z,99433.16
2022-09-15T07:22:07.585Z,99439.91
2022-09-15T07:25:16.875Z,99440.22
2022-09-15T07:28:19.627Z,99441.09
2022-09-15T07:31:25.491Z,99448.59
2022-09-15T07:34:31.293Z,99461.50
2022-09-15T07:37:37.242Z,99466.56
2022-09-15T07:40:39.734Z,99467.13
2022-09-15T07:43:53.259Z,99462.03
2022-09-15T07:46:55.947Z,99466.63
2022-09-15T07:50:01.661Z,99456.19
2022-09-15T07:53:05.023Z,99447.63
2022-09-15T07:56:08.171Z,99446.63
2022-09-15T07:59:11.651Z,99445.63
2022-09-15T08:02:20.203Z,99440.25
2022-09-15T08:05:28.231Z,99448.31
2022-09-15T08:08:30.840Z,99451.50
2022-09-15T08:11:33.918Z,99439.66
2022-09-15T08:14:36.668Z,99442.06
2022-09-15T08:17:39.521Z,99453.25
2022-09-15T08:20:43.507Z,99451.50
2022-09-15T08:23:50.903Z,99452.19
2022-09-15T08:26:54.042Z,99446.28
2022-09-15T08:29:56.925Z,99429.41
2022-09-15T08:32:59.720Z,99431.25
2022-09-15T08:36:05.730Z,99434.97
2022-09-15T08:39:08.915Z,99428.91
2022-09-15T08:42:16.164Z,99419.03
2022-09-15T08:45:24.939Z,99415.25
2022-09-15T08:48:34.099Z,99400.09
2022-09-15T08:51:48.479Z,99393.25
2022-09-15T08:54:52.624Z,99390.50
2022-09-15T08:57:55.459Z,99380.50
2022-09-15T09:01:25.896Z,99381.97
2022-09-15T09:04:48.326Z,99382.91
2022-09-15T09:08:02.342Z,99371.53
2022-09-15T09:11:35.182Z,99372.09
2022-09-15T09:15:03.204Z,99370.16
2022-09-15T09:18:13.918Z,99362.88
2022-09-15T09:21:22.613Z,99363.78
2022-09-15T09:24:42.673Z,99367.44
2022-09-15T09:27:46.417Z,99355.50
2022-09-15T09:30:49.855Z,99363.69
2022-09-15T09:34:15.892Z,99358.06
2022-09-15T09:37:18.736Z,99350.28
2022-09-15T09:40:21.779Z,99354.28
2022-09-15T09:43:27.968Z,99334.09
2022-09-15T09:46:31.731Z,99335.12
2022-09-15T09:49:38.051Z,99322.59
2022-09-15T09:52:40.853Z,99315.19
2022-09-15T09:55:45.943Z,99306.84
2022-09-15T09:58:48.853Z,99306.47
2022-09-15T10:02:11.735Z,99295.72
2022-09-15T10:05:19.580Z,99298.28
2022-09-15T10:08:23.738Z,99297.56
2022-09-15T10:11:49.278Z,99298.25
2022-09-15T10:14:54.719Z,99295.47
2022-09-15T10:17:57.339Z,99291.06
2022-09-15T10:21:01.871Z,99304.03
2022-09-15T10:24:24.438Z,99292.41
2022-09-15T10:27:35.454Z,99298.75
2022-09-15T10:30:38.590Z,99292.69
2022-09-15T10:33:45.439Z,99291.09
2022-09-15T10:36:48.481Z,99294.28
2022-09-15T10:39:56.500Z,99297.06
2022-09-15T10:43:38.149Z,99308.44
2022-09-15T10:47:15.019Z,99304.19
2022-09-15T10:50:45.448Z,99302.53
2022-09-15T10:54:07.107Z,99312.53
2022-09-15T10:57:21.942Z,99314.56
2022-09-15T11:00:25.832Z,99323.91
2022-09-15T11:03:45.072Z,99327.31
2022-09-15T11:07:12.753Z,99326.09
2022-09-15T11:10:22.316Z,99319.53
2022-09-15T11:13:33.770Z,99310.56
2022-09-15T11:16:57.315Z,99303.28
2022-09-15T11:20:19.732Z,99289.84
2022-09-15T11:23:35.279Z,99280.62
2022-09-15T11:26:51.596Z,99266.97
2022-09-15T11:30:06.983Z,99282.50
2022-09-15T11:33:16.125Z,99273.75
2022-09-15T11:36:33.856Z,99267.19
2022-09-15T11:40:32.567Z,99267.06
2022-09-15T11:43:46.244Z,99258.12
2022-09-15T11:47:19.484Z,99249.06
2022-09-15T11:50:33.261Z,99261.16
2022-09-15T11:53:41.370Z,99268.50
2022-09-15T11:56:45.534Z,99271.81
2022-09-15T12:00:05.646Z,99261.09
2022-09-15T12:03:35.131Z,99273.88
2022-09-15T12:06:51.876Z,99263.22
2022-09-15T12:10:03.983Z,99250.09
2022-09-15T12:13:08.134Z,99236.75
2022-09-15T12:16:11.086Z,99234.97
2022-09-15T12:19:19.073Z,99236.63
2022-09-15T12:22:32.047Z,99231.59
2022-09-15T12:25:56.102Z,99245.38
2022-09-15T12:29:27.259Z,99263.94
2022-09-15T12:32:35.184Z,99269.66
2022-09-15T12:35:39.821Z,99243.34
2022-09-15T12:38:48.170Z,99236.38
2022-09-15T12:41:56.612Z,99230.41
2022-09-15T12:45:03.309Z,99214.56
2022-09-15T12:48:12.396Z,99218.56
2022-09-15T12:51:24.756Z,99208.47
2022-09-15T12:54:33.100Z,99199.63
2022-09-15T12:57:36.998Z,99211.84
2022-09-15T13:01:13.887Z,99227.50
2022-09-15T13:04:07.730Z,99238.25
2022-09-15T13:07:16.519Z,99250.41
2022-09-15T13:10:28.282Z,99270.63
2022-09-15T13:13:40.850Z,99276.84
2022-09-15T13:16:48.925Z,99287.38
2022-09-15T13:20:00.228Z,99284.75
2022-09-15T13:23:03.808Z,99300.63
2022-09-15T13:26:12.973Z,99282.34
2022-09-15T13:29:16.419Z,99275.66
2022-09-15T13:32:46.699Z,99263.31
2022-09-15T13:35:52.521Z,99265.72
2022-09-15T13:39:32.687Z,99256.78
2022-09-15T13:43:09.628Z,99269.63
2022-09-15T13:46:33.507Z,99261.31
2022-09-15T13:49:39.452Z,99256.22
2022-09-15T13:52:51.130Z,99244.94
2022-09-15T13:55:55.733Z,99232.84
2022-09-15T13:59:10.229Z,99220.19
2022-09-15T14:02:15.272Z,99205.66
2022-09-15T14:05:18.541Z,99206.25
2022-09-15T14:08:33.430Z,99214.81
2022-09-15T14:11:37.261Z,99206.00
2022-09-15T14:14:45.708Z,99227.41
2022-09-15T14:17:48.503Z,99215.91
2022-09-15T14:21:02.377Z,99212.94
2022-09-15T14:24:18.145Z,99201.63
2022-09-15T14:27:29.775Z,99196.19
2022-09-15T14:30:32.546Z,99190.00
2022-09-15T14:33:40.484Z,99179.03
2022-09-15T14:36:43.216Z,99168.91
2022-09-15T14:39:50.532Z,99171.56
2022-09-15T14:42:53.256Z,99157.31
2022-09-15T14:46:04.538Z,99175.06
2022-09-15T14:49:11.679Z,99173.72
2022-09-15T14:52:29.331Z,99179.59
2022-09-15T14:55:52.826Z,99190.09
2022-09-15T14:59:08.717Z,99198.38
2022-09-15T15:02:27.872Z,99213.41
2022-09-15T15:05:37.909Z,99219.00
2022-09-15T15:08:55.621Z,99227.38
2022-09-15T15:12:02.092Z,99239.72
2022-09-15T15:15:05.921Z,99232.94
2022-09-15T15:18:32.638Z,99226.50
2022-09-15T15:21:36.535Z,99230.78
2022-09-15T15:24:44.445Z,99222.47
2022-09-15T15:27:52.775Z,99219.00
2022-09-15T15:31:06.761Z,99219.25
2022-09-15T15:34:24.024Z,99216.03
2022-09-15T15:37:30.415Z,99221.13
2022-09-15T15:40:33.628Z,99233.19
2022-09-15T15:43:36.445Z,99238.81
2022-09-15T15:46:56.018Z,99231.31
2022-09-15T15:50:14.234Z,99238.81
2022-09-15T15:53:17.107Z,99237.47
2022-09-15T15:56:24.055Z,99230.25
2022-09-15T15:59:26.849Z,99223.31
2022-09-15T16:02:29.381Z,99216.53
2022-09-15T16:05:32.429Z,99210.81
2022-09-15T16:08:40.889Z,99210.66
2022-09-15T16:11:43.488Z,99205.06
2022-09-15T16:14:46.499Z,99210.44
2022-09-15T16:17:49.644Z,99210.75
2022-09-15T16:20:53.022Z,99204.84
2022-09-15T16:23:55.654Z,99206.44
2022-09-15T16:26:58.709Z,99198.09
2022-09-15T16:30:03.410Z,99205.31
2022-09-15T16:33:06.848Z,99203.72
2022-09-15T16:36:14.438Z,99205.03
2022-09-15T16:39:17.031Z,99208.78
2022-09-15T16:42:19.639Z,99204.47
2022-09-15T16:45:39.767Z,99197.72
2022-09-15T16:48:44.353Z,99209.19
2022-09-15T16:51:46.864Z,99228.84
2022-09-15T16:54:49.521Z,99233.06
2022-09-15T16:57:52.095Z,99223.41
2022-09-15T17:00:56.161Z,99235.19
2022-09-15T17:03:58.885Z,99235.66
2022-09-15T17:07:01.622Z,99240.47
2022-09-15T17:10:04.599Z,99237.50
2022-09-15T17:13:08.673Z,99238.31
2022-09-15T17:16:14.038Z,99260.22
2022-09-15T17:19:17.148Z,99250.03
2022-09-15T17:22:19.682Z,99246.00
2022-09-15T17:25:35.128Z,99265.22
2022-09-15T17:28:38.039Z,99255.81
2022-09-15T17:31:40.838Z,99250.44
2022-09-15T17:34:46.544Z,99250.69
2022-09-15T17:37:50.309Z,99232.47
2022-09-15T17:40:56.658Z,99231.94
2022-09-15T17:43:59.954Z,99227.62
2022-09-15T17:47:03.199Z,99216.09
2022-09-15T17:50:06.483Z,99227.28
2022-09-15T17:53:15.114Z,99227.00
2022-09-15T17:56:17.919Z,99229.38
2022-09-15T17:59:20.468Z,99229.63
2022-09-15T18:02:23.913Z,99234.97
2022-09-15T18:05:30.933Z,99236.84
2022-09-15T18:08:34.556Z,99239.75
2022-09-15T18:11:37.127Z,99237.59
2022-09-15T18:14:39.894Z,99231.44
2022-09-15T18:17:43.325Z,99231.13
2022-09-15T18:20:47.316Z,99232.44
2022-09-15T18:23:50.101Z,99231.06
2022-09-15T18:26:54.306Z,99241.50
2022-09-15T18:30:00.088Z,99227.84
2022-09-15T18:33:03.167Z,99228.38
2022-09-15T18:36:07.559Z,99225.38
2022-09-15T18:39:12.111Z,99233.16
2022-09-15T18:42:14.810Z,99241.47
2022-09-15T18:45:18.498Z,99246.50
2022-09-15T18:48:25.952Z,99242.22
2022-09-15T18:51:34.950Z,99245.66
2022-09-15T18:54:53.672Z,99248.34
2022-09-15T18:58:00.773Z,99243.78
2022-09-15T19:01:04.807Z,99247.78
2022-09-15T19:04:07.622Z,99255.25
2022-09-15T19:07:11.574Z,99267.59
2022-09-15T19:10:17.715Z,99271.63
2022-09-15T19:13:20.741Z,99295.94
2022-09-15T19:16:34.632Z,99310.09
2022-09-15T19:19:43.623Z,99319.41
2022-09-15T19:22:47.834Z,99330.09
2022-09-15T19:26:01.801Z,99331.09
2022-09-15T19:29:05.140Z,99338.56
2022-09-15T19:32:10.978Z,99330.50
2022-09-15T19:35:13.724Z,99343.78
2022-09-15T19:38:16.196Z,99344.72
2022-09-15T19:41:18.867Z,99347.31
2022-09-15T19:44:21.902Z,99351.78
2022-09-15T19:47:24.418Z,99358.13
2022-09-15T19:50:27.935Z,99358.84
2022-09-15T19:53:30.449Z,99368.97
2022-09-15T19:56:33.502Z,99368.56
2022-09-15T19:59:36.481Z,99376.50
2022-09-15T20:02:39.831Z,99383.37
2022-09-15T20:05:42.334Z,99387.34
2022-09-15T20:08:47.125Z,99390.72
2022-09-15T20:11:49.614Z,99395.41
2022-09-15T20:14:52.289Z,99393.25
2022-09-15T20:17:57.710Z,99393.66
2022-09-15T20:21:03.078Z,99391.47
2022-09-15T20:24:06.000Z,99393.00
2022-09-15T20:27:09.020Z,99383.06
2022-09-15T20:30:12.000Z,99380.81
2022-09-15T20:33:14.507Z,99379.56
2022-09-15T20:36:23.504Z,99385.03
2022-09-15T20:39:26.322Z,99389.47
2022-09-15T20:42:28.830Z,99401.19
2022-09-15T20:45:36.480Z,99409.91
2022-09-15T20:48:42.633Z,99407.97
2022-09-15T20:51:48.859Z,99399.66
2022-09-15T20:54:51.948Z,99397.31
2022-09-15T20:57:54.742Z,99400.28
2022-09-15T21:01:11.858Z,99397.25
2022-09-15T21:04:14.928Z,99406.53
2022-09-15T21:07:17.443Z,99405.94
2022-09-15T21:10:20.430Z,99416.13
2022-09-15T21:13:23.251Z,99412.91
2022-09-15T21:16:28.028Z,99410.69
2022-09-15T21:19:31.201Z,99406.87
2022-09-15T21:22:33.756Z,99410.81
2022-09-15T21:25:36.194Z,99411.53
2022-09-15T21:28:43.556Z,99421.03
2022-09-15T21:31:46.502Z,99430.31
2022-09-15T21:34:49.042Z,99428.13
2022-09-15T21:37:51.645Z,99435.53
2022-09-15T21:40:54.226Z,99449.91
2022-09-15T21:43:59.194Z,99452.81
2022-09-15T21:47:01.727Z,99459.53
2022-09-15T21:50:04.455Z,99465.44
2022-09-15T21:53:07.600Z,99474.66
2022-09-15T21:56:12.045Z,99468.63
2022-09-15T21:59:14.588Z,99461.22
2022-09-15T22:02:17.484Z,99466.78
2022-09-15T22:05:20.022Z,99477.44
2022-09-15T22:08:22.723Z,99482.19
2022-09-15T22:11:28.497Z,99478.25
2022-09-15T22:14:31.387Z,99485.66
2022-09-15T22:17:33.951Z,99493.56
2022-09-15T22:20:36.566Z,99499.25
2022-09-15T22:23:43.039Z,99505.03
2022-09-15T22:26:45.524Z,99518.81
2022-09-15T22:29:51.799Z,99515.13
2022-09-15T22:32:54.393Z,99513.25
2022-09-15T22:35:58.198Z,99520.91
2022-09-15T22:39:04.138Z,99532.16
2022-09-15T22:42:07.217Z,99535.37
2022-09-15T22:45:11.705Z,99526.94
2022-09-15T22:48:14.491Z,99534.44
2022-09-15T22:51:17.571Z,99537.59
2022-09-15T22:54:20.253Z,99538.16
2022-09-15T22:57:22.761Z,99548.00
2022-09-15T23:00:25.414Z,99562.72
2022-09-15T23:03:28.027Z,99572.56
2022-09-15T23:06:33.033Z,99602.09
2022-09-15T23:09:36.212Z,99582.28
2022-09-15T23:12:41.704Z,99591.22
2022-09-15T23:15:44.264Z,99607.66
2022-09-15T23:18:46.929Z,99609.28
2022-09-15T23:21:49.574Z,99611.72
2022-09-15T23:24:52.104Z,99624.44
2022-09-15T23:27:54.588Z,99640.66
2022-09-15T23:30:58.759Z,99649.69
2022-09-15T23:34:02.129Z,99656.88
2022-09-15T23:37:04.615Z,99658.59
2022-09-15T23:40:07.454Z,99634.41
2022-09-15T23:43:11.628Z,99642.16
2022-09-15T23:46:14.744Z,99638.69
2022-09-15T23:49:18.841Z,99651.41
2022-09-15T23:52:21.967Z,99648.16
2022-09-15T23:55:24.890Z,99655.34
2022-09-15T23:58:27.551Z,99656.81
